You are listening to:
KPOU Ground/Tower - Poughkeepsie, New York, United States

KPOU 161753Z VRB04KT 10SM BKN028 24/18 A3022 RMK AO2 SLP228 T02440178 10244 20178 58005

If stream doesn't start automatically press the play button
If stream stops then reload player then press play